sensor_id;sensor_type;location;lat;lon;timestamp;P1;durP1;ratioP1;P2;durP2;ratioP2
46006;SDS011;31738;50.188;8.524;2023-09-18T00:01:40;8.15;;;3.97;;
46006;SDS011;31738;50.188;8.524;2023-09-18T00:04:06;7.35;;;4.25;;
46006;SDS011;31738;50.188;8.524;2023-09-18T00:06:32;8.63;;;3.88;;
46006;SDS011;31738;50.188;8.524;2023-09-18T00:08:58;9.82;;;4.53;;
46006;SDS011;31738;50.188;8.524;2023-09-18T00:11:29;6.78;;;3.85;;
46006;SDS011;31738;50.188;8.524;2023-09-18T00:13:55;8.60;;;4.32;;
46006;SDS011;31738;50.188;8.524;2023-09-18T00:16:23;9.75;;;3.75;;
46006;SDS011;31738;50.188;8.524;2023-09-18T00:18:52;7.20;;;4.10;;
46006;SDS011;31738;50.188;8.524;2023-09-18T00:21:18;10.18;;;4.45;;
46006;SDS011;31738;50.188;8.524;2023-09-18T00:23:43;13.15;;;4.10;;
46006;SDS011;31738;50.188;8.524;2023-09-18T00:26:09;10.00;;;4.68;;
46006;SDS011;31738;50.188;8.524;2023-09-18T00:28:35;10.32;;;4.75;;
46006;SDS011;31738;50.188;8.524;2023-09-18T00:31:16;6.70;;;4.28;;
46006;SDS011;31738;50.188;8.524;2023-09-18T00:33:44;6.40;;;4.30;;
46006;SDS011;31738;50.188;8.524;2023-09-18T00:36:10;6.07;;;4.20;;
46006;SDS011;31738;50.188;8.524;2023-09-18T00:38:39;7.15;;;4.38;;
46006;SDS011;31738;50.188;8.524;2023-09-18T00:41:04;7.68;;;4.15;;
46006;SDS011;31738;50.188;8.524;2023-09-18T00:43:31;7.72;;;4.18;;
46006;SDS011;31738;50.188;8.524;2023-09-18T00:45:57;9.60;;;3.95;;
46006;SDS011;31738;50.188;8.524;2023-09-18T00:48:22;10.40;;;4.57;;
46006;SDS011;31738;50.188;8.524;2023-09-18T00:50:48;12.00;;;4.22;;
46006;SDS011;31738;50.188;8.524;2023-09-18T00:53:16;7.90;;;4.07;;
46006;SDS011;31738;50.188;8.524;2023-09-18T00:55:45;8.63;;;4.22;;
46006;SDS011;31738;50.188;8.524;2023-09-18T00:58:12;9.77;;;4.47;;
46006;SDS011;31738;50.188;8.524;2023-09-18T01:00:39;11.77;;;4.72;;
46006;SDS011;31738;50.188;8.524;2023-09-18T01:03:05;8.13;;;4.45;;
46006;SDS011;31738;50.188;8.524;2023-09-18T01:05:39;9.07;;;4.60;;
46006;SDS011;31738;50.188;8.524;2023-09-18T01:08:07;7.47;;;4.22;;
46006;SDS011;31738;50.188;8.524;2023-09-18T01:11:00;11.63;;;4.40;;
46006;SDS011;31738;50.188;8.524;2023-09-18T01:13:51;7.72;;;4.18;;
46006;SDS011;31738;50.188;8.524;2023-09-18T01:16:25;5.93;;;4.50;;
46006;SDS011;31738;50.188;8.524;2023-09-18T01:18:57;8.35;;;4.40;;
46006;SDS011;31738;50.188;8.524;2023-09-18T01:21:24;8.45;;;4.75;;
46006;SDS011;31738;50.188;8.524;2023-09-18T01:23:50;5.85;;;4.18;;
46006;SDS011;31738;50.188;8.524;2023-09-18T01:26:16;9.80;;;4.88;;
46006;SDS011;31738;50.188;8.524;2023-09-18T01:28:42;6.95;;;4.80;;
46006;SDS011;31738;50.188;8.524;2023-09-18T01:31:08;8.95;;;4.20;;
46006;SDS011;31738;50.188;8.524;2023-09-18T01:33:37;6.53;;;4.45;;
46006;SDS011;31738;50.188;8.524;2023-09-18T01:36:12;5.53;;;4.30;;
46006;SDS011;31738;50.188;8.524;2023-09-18T01:38:40;8.45;;;4.43;;
46006;SDS011;31738;50.188;8.524;2023-09-18T01:41:06;10.43;;;4.65;;
46006;SDS011;31738;50.188;8.524;2023-09-18T01:43:34;4.85;;;3.95;;
46006;SDS011;31738;50.188;8.524;2023-09-18T01:46:00;7.97;;;3.95;;
46006;SDS011;31738;50.188;8.524;2023-09-18T01:48:26;6.63;;;4.45;;
46006;SDS011;31738;50.188;8.524;2023-09-18T01:50:51;7.78;;;4.43;;
46006;SDS011;31738;50.188;8.524;2023-09-18T01:53:18;5.72;;;3.80;;
46006;SDS011;31738;50.188;8.524;2023-09-18T01:55:44;10.35;;;4.32;;
46006;SDS011;31738;50.188;8.524;2023-09-18T01:58:09;8.75;;;4.10;;
46006;SDS011;31738;50.188;8.524;2023-09-18T02:00:35;8.43;;;5.00;;
46006;SDS011;31738;50.188;8.524;2023-09-18T02:03:00;7.10;;;4.60;;
46006;SDS011;31738;50.188;8.524;2023-09-18T02:05:26;9.20;;;4.95;;
46006;SDS011;31738;50.188;8.524;2023-09-18T02:07:51;6.65;;;4.72;;
46006;SDS011;31738;50.188;8.524;2023-09-18T02:10:17;11.60;;;4.70;;
46006;SDS011;31738;50.188;8.524;2023-09-18T02:12:42;10.55;;;4.40;;
46006;SDS011;31738;50.188;8.524;2023-09-18T02:15:10;6.93;;;4.28;;
46006;SDS011;31738;50.188;8.524;2023-09-18T02:17:36;8.38;;;4.28;;
46006;SDS011;31738;50.188;8.524;2023-09-18T02:20:02;13.43;;;4.45;;
46006;SDS011;31738;50.188;8.524;2023-09-18T02:22:37;9.10;;;4.03;;
46006;SDS011;31738;50.188;8.524;2023-09-18T02:25:05;9.27;;;5.13;;
46006;SDS011;31738;50.188;8.524;2023-09-18T02:27:31;8.05;;;5.43;;
46006;SDS011;31738;50.188;8.524;2023-09-18T02:29:56;7.32;;;5.28;;
46006;SDS011;31738;50.188;8.524;2023-09-18T02:32:22;11.00;;;5.80;;
46006;SDS011;31738;50.188;8.524;2023-09-18T02:34:47;8.50;;;5.20;;
46006;SDS011;31738;50.188;8.524;2023-09-18T02:37:14;8.73;;;5.22;;
46006;SDS011;31738;50.188;8.524;2023-09-18T02:39:40;9.65;;;5.38;;
46006;SDS011;31738;50.188;8.524;2023-09-18T02:42:06;15.57;;;5.65;;
46006;SDS011;31738;50.188;8.524;2023-09-18T02:44:31;9.27;;;5.75;;
46006;SDS011;31738;50.188;8.524;2023-09-18T02:46:57;8.73;;;5.60;;
46006;SDS011;31738;50.188;8.524;2023-09-18T02:49:22;9.55;;;5.50;;
46006;SDS011;31738;50.188;8.524;2023-09-18T02:51:47;7.95;;;5.63;;
46006;SDS011;31738;50.188;8.524;2023-09-18T02:54:16;8.38;;;5.07;;
46006;SDS011;31738;50.188;8.524;2023-09-18T02:56:41;7.53;;;5.25;;
46006;SDS011;31738;50.188;8.524;2023-09-18T02:59:07;7.82;;;5.70;;
46006;SDS011;31738;50.188;8.524;2023-09-18T03:01:32;10.63;;;5.70;;
46006;SDS011;31738;50.188;8.524;2023-09-18T03:03:58;8.07;;;5.47;;
46006;SDS011;31738;50.188;8.524;2023-09-18T03:06:24;10.32;;;5.35;;
46006;SDS011;31738;50.188;8.524;2023-09-18T03:08:49;8.98;;;5.30;;
46006;SDS011;31738;50.188;8.524;2023-09-18T03:11:16;12.27;;;5.82;;
46006;SDS011;31738;50.188;8.524;2023-09-18T03:13:46;10.20;;;5.65;;
46006;SDS011;31738;50.188;8.524;2023-09-18T03:16:13;8.98;;;5.95;;
46006;SDS011;31738;50.188;8.524;2023-09-18T03:18:39;7.55;;;5.32;;
46006;SDS011;31738;50.188;8.524;2023-09-18T03:21:05;8.93;;;6.22;;
46006;SDS011;31738;50.188;8.524;2023-09-18T03:23:30;7.75;;;5.30;;
46006;SDS011;31738;50.188;8.524;2023-09-18T03:25:56;7.93;;;5.20;;
46006;SDS011;31738;50.188;8.524;2023-09-18T03:28:21;7.80;;;5.60;;
46006;SDS011;31738;50.188;8.524;2023-09-18T03:30:49;9.93;;;5.35;;
46006;SDS011;31738;50.188;8.524;2023-09-18T03:33:18;10.43;;;5.93;;
46006;SDS011;31738;50.188;8.524;2023-09-18T03:35:45;10.20;;;5.80;;
46006;SDS011;31738;50.188;8.524;2023-09-18T03:38:14;9.82;;;5.85;;
46006;SDS011;31738;50.188;8.524;2023-09-18T03:40:41;7.22;;;4.97;;
46006;SDS011;31738;50.188;8.524;2023-09-18T03:43:07;9.60;;;5.93;;
46006;SDS011;31738;50.188;8.524;2023-09-18T03:45:35;8.07;;;5.82;;
46006;SDS011;31738;50.188;8.524;2023-09-18T03:48:00;8.45;;;5.10;;
46006;SDS011;31738;50.188;8.524;2023-09-18T03:50:26;8.75;;;6.15;;
46006;SDS011;31738;50.188;8.524;2023-09-18T03:52:52;9.80;;;6.13;;
46006;SDS011;31738;50.188;8.524;2023-09-18T03:55:18;10.77;;;6.32;;
46006;SDS011;31738;50.188;8.524;2023-09-18T03:57:43;8.50;;;5.65;;
46006;SDS011;31738;50.188;8.524;2023-09-18T04:00:11;10.10;;;5.68;;
46006;SDS011;31738;50.188;8.524;2023-09-18T04:02:39;8.55;;;5.60;;
46006;SDS011;31738;50.188;8.524;2023-09-18T04:05:05;9.32;;;5.80;;
46006;SDS011;31738;50.188;8.524;2023-09-18T04:07:32;11.02;;;5.50;;
46006;SDS011;31738;50.188;8.524;2023-09-18T04:09:59;8.18;;;5.30;;
46006;SDS011;31738;50.188;8.524;2023-09-18T04:12:25;7.93;;;5.65;;
46006;SDS011;31738;50.188;8.524;2023-09-18T04:14:50;9.77;;;5.07;;
46006;SDS011;31738;50.188;8.524;2023-09-18T04:17:16;10.93;;;5.68;;
46006;SDS011;31738;50.188;8.524;2023-09-18T04:19:41;10.50;;;5.75;;
46006;SDS011;31738;50.188;8.524;2023-09-18T04:22:08;11.15;;;5.75;;
46006;SDS011;31738;50.188;8.524;2023-09-18T04:24:34;9.30;;;5.45;;
46006;SDS011;31738;50.188;8.524;2023-09-18T04:26:59;10.20;;;5.45;;
46006;SDS011;31738;50.188;8.524;2023-09-18T04:29:25;8.02;;;5.80;;
46006;SDS011;31738;50.188;8.524;2023-09-18T04:31:50;9.93;;;5.32;;
46006;SDS011;31738;50.188;8.524;2023-09-18T04:34:16;13.50;;;6.00;;
46006;SDS011;31738;50.188;8.524;2023-09-18T04:36:42;10.32;;;5.03;;
46006;SDS011;31738;50.188;8.524;2023-09-18T04:39:09;8.70;;;5.45;;
46006;SDS011;31738;50.188;8.524;2023-09-18T04:41:35;10.48;;;5.55;;
46006;SDS011;31738;50.188;8.524;2023-09-18T04:44:02;8.20;;;5.25;;
46006;SDS011;31738;50.188;8.524;2023-09-18T04:46:30;10.18;;;5.60;;
46006;SDS011;31738;50.188;8.524;2023-09-18T04:48:56;9.00;;;5.45;;
46006;SDS011;31738;50.188;8.524;2023-09-18T04:51:21;12.23;;;5.72;;
46006;SDS011;31738;50.188;8.524;2023-09-18T04:53:47;9.30;;;5.78;;
46006;SDS011;31738;50.188;8.524;2023-09-18T04:56:12;12.25;;;5.38;;
46006;SDS011;31738;50.188;8.524;2023-09-18T04:58:38;10.18;;;5.32;;
46006;SDS011;31738;50.188;8.524;2023-09-18T05:01:04;12.25;;;5.65;;
46006;SDS011;31738;50.188;8.524;2023-09-18T05:03:33;11.98;;;5.47;;
46006;SDS011;31738;50.188;8.524;2023-09-18T05:05:59;10.48;;;5.65;;
46006;SDS011;31738;50.188;8.524;2023-09-18T05:08:24;9.25;;;5.53;;
46006;SDS011;31738;50.188;8.524;2023-09-18T05:10:50;10.98;;;5.25;;
46006;SDS011;31738;50.188;8.524;2023-09-18T05:13:15;11.60;;;5.65;;
46006;SDS011;31738;50.188;8.524;2023-09-18T05:15:41;10.45;;;5.25;;
46006;SDS011;31738;50.188;8.524;2023-09-18T05:18:06;10.45;;;5.57;;
46006;SDS011;31738;50.188;8.524;2023-09-18T05:20:34;12.43;;;5.57;;
46006;SDS011;31738;50.188;8.524;2023-09-18T05:23:00;9.07;;;5.35;;
46006;SDS011;31738;50.188;8.524;2023-09-18T05:25:27;10.45;;;5.35;;
46006;SDS011;31738;50.188;8.524;2023-09-18T05:27:57;10.90;;;6.00;;
46006;SDS011;31738;50.188;8.524;2023-09-18T05:30:34;10.63;;;5.60;;
46006;SDS011;31738;50.188;8.524;2023-09-18T05:33:03;10.18;;;6.03;;
46006;SDS011;31738;50.188;8.524;2023-09-18T05:35:30;10.90;;;5.80;;
46006;SDS011;31738;50.188;8.524;2023-09-18T05:37:56;9.70;;;5.78;;
46006;SDS011;31738;50.188;8.524;2023-09-18T05:40:23;16.27;;;7.53;;
46006;SDS011;31738;50.188;8.524;2023-09-18T05:42:52;12.05;;;6.60;;
46006;SDS011;31738;50.188;8.524;2023-09-18T05:45:19;9.63;;;6.13;;
46006;SDS011;31738;50.188;8.524;2023-09-18T05:47:44;13.38;;;5.82;;
46006;SDS011;31738;50.188;8.524;2023-09-18T05:50:11;9.05;;;6.20;;
46006;SDS011;31738;50.188;8.524;2023-09-18T05:52:43;10.40;;;5.50;;
46006;SDS011;31738;50.188;8.524;2023-09-18T05:55:09;11.98;;;5.88;;
46006;SDS011;31738;50.188;8.524;2023-09-18T05:57:35;11.57;;;5.63;;
46006;SDS011;31738;50.188;8.524;2023-09-18T06:00:01;12.45;;;5.90;;
46006;SDS011;31738;50.188;8.524;2023-09-18T06:02:37;11.57;;;5.55;;
46006;SDS011;31738;50.188;8.524;2023-09-18T06:05:02;8.23;;;4.85;;
46006;SDS011;31738;50.188;8.524;2023-09-18T06:07:28;14.77;;;5.18;;
46006;SDS011;31738;50.188;8.524;2023-09-18T06:09:55;12.20;;;5.05;;
46006;SDS011;31738;50.188;8.524;2023-09-18T06:12:22;12.32;;;4.80;;
46006;SDS011;31738;50.188;8.524;2023-09-18T06:14:47;11.93;;;4.88;;
46006;SDS011;31738;50.188;8.524;2023-09-18T06:17:13;10.65;;;4.57;;
46006;SDS011;31738;50.188;8.524;2023-09-18T06:19:40;11.23;;;5.07;;
46006;SDS011;31738;50.188;8.524;2023-09-18T06:22:06;14.85;;;4.95;;
46006;SDS011;31738;50.188;8.524;2023-09-18T06:24:33;11.75;;;4.47;;
46006;SDS011;31738;50.188;8.524;2023-09-18T06:26:59;13.35;;;4.25;;
46006;SDS011;31738;50.188;8.524;2023-09-18T06:29:24;11.68;;;4.10;;
46006;SDS011;31738;50.188;8.524;2023-09-18T06:31:50;9.25;;;4.32;;
46006;SDS011;31738;50.188;8.524;2023-09-18T06:34:16;12.60;;;5.13;;
46006;SDS011;31738;50.188;8.524;2023-09-18T06:36:42;9.43;;;4.60;;
46006;SDS011;31738;50.188;8.524;2023-09-18T06:39:07;12.57;;;5.25;;
46006;SDS011;31738;50.188;8.524;2023-09-18T06:41:32;15.82;;;5.20;;
46006;SDS011;31738;50.188;8.524;2023-09-18T06:43:59;11.73;;;5.78;;
46006;SDS011;31738;50.188;8.524;2023-09-18T06:46:27;13.57;;;5.47;;
46006;SDS011;31738;50.188;8.524;2023-09-18T06:48:53;10.68;;;4.88;;
46006;SDS011;31738;50.188;8.524;2023-09-18T06:51:19;14.27;;;5.32;;
46006;SDS011;31738;50.188;8.524;2023-09-18T06:53:44;10.50;;;4.53;;
46006;SDS011;31738;50.188;8.524;2023-09-18T06:56:10;13.73;;;5.10;;
46006;SDS011;31738;50.188;8.524;2023-09-18T06:58:37;10.07;;;4.80;;
46006;SDS011;31738;50.188;8.524;2023-09-18T07:01:03;12.18;;;4.93;;
46006;SDS011;31738;50.188;8.524;2023-09-18T07:03:32;16.13;;;5.20;;
46006;SDS011;31738;50.188;8.524;2023-09-18T07:06:00;10.88;;;5.03;;
46006;SDS011;31738;50.188;8.524;2023-09-18T07:08:25;13.80;;;5.50;;
46006;SDS011;31738;50.188;8.524;2023-09-18T07:10:51;12.70;;;5.85;;
46006;SDS011;31738;50.188;8.524;2023-09-18T07:13:16;10.98;;;5.05;;
46006;SDS011;31738;50.188;8.524;2023-09-18T07:15:42;17.80;;;5.00;;
46006;SDS011;31738;50.188;8.524;2023-09-18T07:18:07;11.25;;;5.72;;
46006;SDS011;31738;50.188;8.524;2023-09-18T07:20:34;13.27;;;6.22;;
46006;SDS011;31738;50.188;8.524;2023-09-18T07:23:01;15.63;;;5.97;;
46006;SDS011;31738;50.188;8.524;2023-09-18T07:25:26;12.98;;;5.35;;
46006;SDS011;31738;50.188;8.524;2023-09-18T07:27:52;15.23;;;5.78;;
46006;SDS011;31738;50.188;8.524;2023-09-18T07:30:17;13.98;;;5.63;;
46006;SDS011;31738;50.188;8.524;2023-09-18T07:32:44;16.13;;;5.63;;
46006;SDS011;31738;50.188;8.524;2023-09-18T07:35:11;14.18;;;5.70;;
46006;SDS011;31738;50.188;8.524;2023-09-18T07:37:36;13.90;;;5.38;;
46006;SDS011;31738;50.188;8.524;2023-09-18T07:40:03;13.60;;;5.20;;
46006;SDS011;31738;50.188;8.524;2023-09-18T07:42:29;11.93;;;5.30;;
46006;SDS011;31738;50.188;8.524;2023-09-18T07:44:55;23.05;;;5.00;;
46006;SDS011;31738;50.188;8.524;2023-09-18T07:47:20;12.60;;;5.22;;
46006;SDS011;31738;50.188;8.524;2023-09-18T07:49:46;15.50;;;5.65;;
46006;SDS011;31738;50.188;8.524;2023-09-18T07:52:12;13.38;;;5.18;;
46006;SDS011;31738;50.188;8.524;2023-09-18T07:54:37;17.40;;;5.68;;
46006;SDS011;31738;50.188;8.524;2023-09-18T07:57:03;17.42;;;5.20;;
46006;SDS011;31738;50.188;8.524;2023-09-18T07:59:28;16.42;;;5.82;;
46006;SDS011;31738;50.188;8.524;2023-09-18T08:01:54;10.93;;;4.90;;
46006;SDS011;31738;50.188;8.524;2023-09-18T08:04:20;22.67;;;5.10;;
46006;SDS011;31738;50.188;8.524;2023-09-18T08:06:46;12.73;;;4.50;;
46006;SDS011;31738;50.188;8.524;2023-09-18T08:09:12;13.23;;;4.35;;
46006;SDS011;31738;50.188;8.524;2023-09-18T08:11:41;10.25;;;4.90;;
46006;SDS011;31738;50.188;8.524;2023-09-18T08:14:08;9.98;;;4.10;;
46006;SDS011;31738;50.188;8.524;2023-09-18T08:16:35;14.90;;;4.20;;
46006;SDS011;31738;50.188;8.524;2023-09-18T08:19:03;12.20;;;4.72;;
46006;SDS011;31738;50.188;8.524;2023-09-18T08:21:29;13.00;;;5.00;;
46006;SDS011;31738;50.188;8.524;2023-09-18T08:23:54;15.80;;;4.20;;
46006;SDS011;31738;50.188;8.524;2023-09-18T08:26:21;17.85;;;5.13;;
46006;SDS011;31738;50.188;8.524;2023-09-18T08:28:47;16.80;;;4.85;;
46006;SDS011;31738;50.188;8.524;2023-09-18T08:31:12;13.10;;;4.90;;
46006;SDS011;31738;50.188;8.524;2023-09-18T08:33:39;12.02;;;5.03;;
46006;SDS011;31738;50.188;8.524;2023-09-18T08:36:04;14.07;;;4.30;;
46006;SDS011;31738;50.188;8.524;2023-09-18T08:38:30;10.48;;;4.35;;
46006;SDS011;31738;50.188;8.524;2023-09-18T08:40:57;19.58;;;4.70;;
46006;SDS011;31738;50.188;8.524;2023-09-18T08:43:22;12.75;;;4.25;;
46006;SDS011;31738;50.188;8.524;2023-09-18T08:45:53;12.05;;;4.68;;
46006;SDS011;31738;50.188;8.524;2023-09-18T08:48:21;11.57;;;4.10;;
46006;SDS011;31738;50.188;8.524;2023-09-18T08:50:47;14.45;;;3.92;;
46006;SDS011;31738;50.188;8.524;2023-09-18T08:53:13;11.45;;;4.22;;
46006;SDS011;31738;50.188;8.524;2023-09-18T08:55:39;9.05;;;3.83;;
46006;SDS011;31738;50.188;8.524;2023-09-18T08:58:06;13.65;;;3.85;;
46006;SDS011;31738;50.188;8.524;2023-09-18T09:00:32;10.98;;;3.80;;
46006;SDS011;31738;50.188;8.524;2023-09-18T09:02:59;13.80;;;3.50;;
46006;SDS011;31738;50.188;8.524;2023-09-18T09:05:24;12.63;;;3.90;;
46006;SDS011;31738;50.188;8.524;2023-09-18T09:07:50;14.70;;;4.18;;
46006;SDS011;31738;50.188;8.524;2023-09-18T09:10:16;9.75;;;3.63;;
46006;SDS011;31738;50.188;8.524;2023-09-18T09:12:52;11.75;;;3.85;;
46006;SDS011;31738;50.188;8.524;2023-09-18T09:15:26;10.02;;;3.47;;
46006;SDS011;31738;50.188;8.524;2023-09-18T09:18:06;13.10;;;3.35;;
46006;SDS011;31738;50.188;8.524;2023-09-18T09:20:33;10.80;;;3.03;;
46006;SDS011;31738;50.188;8.524;2023-09-18T09:23:02;8.27;;;2.78;;
46006;SDS011;31738;50.188;8.524;2023-09-18T09:25:29;8.70;;;2.42;;
46006;SDS011;31738;50.188;8.524;2023-09-18T09:28:00;4.88;;;2.15;;
46006;SDS011;31738;50.188;8.524;2023-09-18T09:30:27;10.77;;;2.25;;
46006;SDS011;31738;50.188;8.524;2023-09-18T09:32:54;9.07;;;2.25;;
46006;SDS011;31738;50.188;8.524;2023-09-18T09:35:26;4.35;;;1.90;;
46006;SDS011;31738;50.188;8.524;2023-09-18T09:38:00;6.28;;;2.00;;
46006;SDS011;31738;50.188;8.524;2023-09-18T09:40:28;4.43;;;1.70;;
46006;SDS011;31738;50.188;8.524;2023-09-18T09:42:55;7.60;;;1.95;;
46006;SDS011;31738;50.188;8.524;2023-09-18T09:45:30;7.18;;;1.73;;
46006;SDS011;31738;50.188;8.524;2023-09-18T09:48:01;5.30;;;1.60;;
46006;SDS011;31738;50.188;8.524;2023-09-18T09:50:29;4.22;;;1.65;;
46006;SDS011;31738;50.188;8.524;2023-09-18T09:52:55;7.30;;;1.88;;
46006;SDS011;31738;50.188;8.524;2023-09-18T09:58:03;3.78;;;1.70;;
46006;SDS011;31738;50.188;8.524;2023-09-18T10:03:11;5.43;;;1.85;;
46006;SDS011;31738;50.188;8.524;2023-09-18T10:05:40;5.05;;;1.38;;
46006;SDS011;31738;50.188;8.524;2023-09-18T10:08:08;9.95;;;2.05;;
46006;SDS011;31738;50.188;8.524;2023-09-18T10:10:41;3.47;;;1.48;;
46006;SDS011;31738;50.188;8.524;2023-09-18T10:13:13;4.53;;;1.48;;
46006;SDS011;31738;50.188;8.524;2023-09-18T10:15:42;5.57;;;1.63;;
46006;SDS011;31738;50.188;8.524;2023-09-18T10:18:19;4.10;;;1.60;;
46006;SDS011;31738;50.188;8.524;2023-09-18T10:20:53;3.47;;;1.20;;
46006;SDS011;31738;50.188;8.524;2023-09-18T10:24:14;4.20;;;1.33;;
46006;SDS011;31738;50.188;8.524;2023-09-18T10:26:27;4.10;;;1.27;;
46006;SDS011;31738;50.188;8.524;2023-09-18T10:28:54;2.85;;;1.35;;
46006;SDS011;31738;50.188;8.524;2023-09-18T10:31:25;2.72;;;1.30;;
46006;SDS011;31738;50.188;8.524;2023-09-18T10:33:52;7.00;;;1.60;;
46006;SDS011;31738;50.188;8.524;2023-09-18T10:36:19;3.42;;;1.23;;
46006;SDS011;31738;50.188;8.524;2023-09-18T10:38:47;3.65;;;1.40;;
46006;SDS011;31738;50.188;8.524;2023-09-18T10:41:17;5.63;;;1.45;;
46006;SDS011;31738;50.188;8.524;2023-09-18T10:43:45;3.05;;;1.45;;
46006;SDS011;31738;50.188;8.524;2023-09-18T10:46:13;5.13;;;1.17;;
46006;SDS011;31738;50.188;8.524;2023-09-18T10:48:43;6.05;;;1.35;;
46006;SDS011;31738;50.188;8.524;2023-09-18T10:51:11;6.00;;;1.35;;
46006;SDS011;31738;50.188;8.524;2023-09-18T10:53:39;3.72;;;1.30;;
46006;SDS011;31738;50.188;8.524;2023-09-18T10:56:05;3.75;;;1.50;;
46006;SDS011;31738;50.188;8.524;2023-09-18T10:58:32;4.75;;;1.40;;
46006;SDS011;31738;50.188;8.524;2023-09-18T11:01:01;4.13;;;1.40;;
46006;SDS011;31738;50.188;8.524;2023-09-18T11:03:27;3.13;;;1.30;;
46006;SDS011;31738;50.188;8.524;2023-09-18T11:06:13;3.50;;;1.15;;
46006;SDS011;31738;50.188;8.524;2023-09-18T11:08:44;9.18;;;1.73;;
46006;SDS011;31738;50.188;8.524;2023-09-18T11:11:11;3.30;;;1.38;;
46006;SDS011;31738;50.188;8.524;2023-09-18T11:13:40;3.63;;;1.48;;
46006;SDS011;31738;50.188;8.524;2023-09-18T11:18:51;2.72;;;1.50;;
46006;SDS011;31738;50.188;8.524;2023-09-18T11:21:17;4.97;;;1.60;;
46006;SDS011;31738;50.188;8.524;2023-09-18T11:23:48;1.95;;;1.17;;
46006;SDS011;31738;50.188;8.524;2023-09-18T11:28:49;5.15;;;1.40;;
46006;SDS011;31738;50.188;8.524;2023-09-18T11:31:17;3.55;;;1.40;;
46006;SDS011;31738;50.188;8.524;2023-09-18T11:33:45;3.78;;;1.70;;
46006;SDS011;31738;50.188;8.524;2023-09-18T11:36:13;2.75;;;1.50;;
46006;SDS011;31738;50.188;8.524;2023-09-18T11:38:56;2.13;;;1.42;;
46006;SDS011;31738;50.188;8.524;2023-09-18T11:41:29;4.95;;;1.80;;
46006;SDS011;31738;50.188;8.524;2023-09-18T11:46:50;3.88;;;1.58;;
46006;SDS011;31738;50.188;8.524;2023-09-18T11:49:23;4.28;;;1.73;;
46006;SDS011;31738;50.188;8.524;2023-09-18T11:51:52;3.58;;;1.77;;
46006;SDS011;31738;50.188;8.524;2023-09-18T11:54:18;3.90;;;1.90;;
46006;SDS011;31738;50.188;8.524;2023-09-18T11:56:44;3.80;;;1.75;;
46006;SDS011;31738;50.188;8.524;2023-09-18T11:59:10;3.53;;;1.48;;
46006;SDS011;31738;50.188;8.524;2023-09-18T12:01:37;3.25;;;1.75;;
46006;SDS011;31738;50.188;8.524;2023-09-18T12:04:05;2.67;;;1.40;;
46006;SDS011;31738;50.188;8.524;2023-09-18T12:06:35;2.33;;;1.55;;
46006;SDS011;31738;50.188;8.524;2023-09-18T12:09:01;4.18;;;1.90;;
46006;SDS011;31738;50.188;8.524;2023-09-18T12:11:28;2.55;;;1.90;;
46006;SDS011;31738;50.188;8.524;2023-09-18T12:13:55;4.07;;;1.92;;
46006;SDS011;31738;50.188;8.524;2023-09-18T12:16:20;5.00;;;1.60;;
46006;SDS011;31738;50.188;8.524;2023-09-18T12:18:49;5.38;;;1.88;;
46006;SDS011;31738;50.188;8.524;2023-09-18T12:21:16;4.05;;;1.65;;
46006;SDS011;31738;50.188;8.524;2023-09-18T12:23:43;3.30;;;1.60;;
46006;SDS011;31738;50.188;8.524;2023-09-18T12:26:10;4.55;;;1.95;;
46006;SDS011;31738;50.188;8.524;2023-09-18T12:28:40;3.28;;;1.40;;
46006;SDS011;31738;50.188;8.524;2023-09-18T12:31:10;3.83;;;1.67;;
46006;SDS011;31738;50.188;8.524;2023-09-18T12:33:39;2.28;;;1.63;;
46006;SDS011;31738;50.188;8.524;2023-09-18T12:36:06;3.17;;;1.70;;
46006;SDS011;31738;50.188;8.524;2023-09-18T12:38:33;4.45;;;1.60;;
46006;SDS011;31738;50.188;8.524;2023-09-18T12:40:59;2.85;;;1.75;;
46006;SDS011;31738;50.188;8.524;2023-09-18T12:43:40;4.13;;;2.28;;
46006;SDS011;31738;50.188;8.524;2023-09-18T12:46:07;4.38;;;2.70;;
46006;SDS011;31738;50.188;8.524;2023-09-18T12:48:37;5.57;;;2.38;;
46006;SDS011;31738;50.188;8.524;2023-09-18T12:51:04;3.80;;;2.00;;
46006;SDS011;31738;50.188;8.524;2023-09-18T12:53:30;4.15;;;2.08;;
46006;SDS011;31738;50.188;8.524;2023-09-18T12:56:06;3.97;;;1.73;;
46006;SDS011;31738;50.188;8.524;2023-09-18T12:58:33;5.22;;;1.75;;
46006;SDS011;31738;50.188;8.524;2023-09-18T13:01:03;3.85;;;1.98;;
46006;SDS011;31738;50.188;8.524;2023-09-18T13:03:41;5.35;;;1.65;;
46006;SDS011;31738;50.188;8.524;2023-09-18T13:06:08;3.60;;;1.75;;
46006;SDS011;31738;50.188;8.524;2023-09-18T13:08:35;4.63;;;1.27;;
46006;SDS011;31738;50.188;8.524;2023-09-18T13:11:01;3.13;;;1.40;;
46006;SDS011;31738;50.188;8.524;2023-09-18T13:13:31;5.80;;;1.30;;
46006;SDS011;31738;50.188;8.524;2023-09-18T13:15:58;3.45;;;1.48;;
46006;SDS011;31738;50.188;8.524;2023-09-18T13:18:25;4.03;;;1.42;;
46006;SDS011;31738;50.188;8.524;2023-09-18T13:20:50;2.65;;;1.20;;
46006;SDS011;31738;50.188;8.524;2023-09-18T13:23:17;3.70;;;1.35;;
46006;SDS011;31738;50.188;8.524;2023-09-18T13:25:43;5.13;;;1.50;;
46006;SDS011;31738;50.188;8.524;2023-09-18T13:28:10;5.43;;;1.45;;
46006;SDS011;31738;50.188;8.524;2023-09-18T13:30:37;3.45;;;1.55;;
46006;SDS011;31738;50.188;8.524;2023-09-18T13:33:05;3.58;;;1.15;;
46006;SDS011;31738;50.188;8.524;2023-09-18T13:35:33;4.85;;;1.92;;
46006;SDS011;31738;50.188;8.524;2023-09-18T13:38:00;6.45;;;1.70;;
46006;SDS011;31738;50.188;8.524;2023-09-18T13:40:26;4.05;;;1.77;;
46006;SDS011;31738;50.188;8.524;2023-09-18T13:42:53;3.58;;;1.23;;
46006;SDS011;31738;50.188;8.524;2023-09-18T13:45:18;1.88;;;1.25;;
46006;SDS011;31738;50.188;8.524;2023-09-18T13:47:44;1.95;;;1.15;;
46006;SDS011;31738;50.188;8.524;2023-09-18T13:50:09;4.03;;;1.60;;
46006;SDS011;31738;50.188;8.524;2023-09-18T13:52:35;4.72;;;1.30;;
46006;SDS011;31738;50.188;8.524;2023-09-18T13:55:02;3.88;;;1.83;;
46006;SDS011;31738;50.188;8.524;2023-09-18T13:57:33;2.25;;;1.13;;
46006;SDS011;31738;50.188;8.524;2023-09-18T14:00:00;5.03;;;1.33;;
46006;SDS011;31738;50.188;8.524;2023-09-18T14:02:37;4.57;;;1.33;;
46006;SDS011;31738;50.188;8.524;2023-09-18T14:05:04;5.68;;;1.48;;
46006;SDS011;31738;50.188;8.524;2023-09-18T14:07:30;3.80;;;1.38;;
46006;SDS011;31738;50.188;8.524;2023-09-18T14:09:56;2.72;;;1.48;;
46006;SDS011;31738;50.188;8.524;2023-09-18T14:12:22;2.22;;;1.30;;
46006;SDS011;31738;50.188;8.524;2023-09-18T14:14:47;2.90;;;1.58;;
46006;SDS011;31738;50.188;8.524;2023-09-18T14:17:13;3.17;;;1.45;;
46006;SDS011;31738;50.188;8.524;2023-09-18T14:19:39;4.30;;;1.50;;
46006;SDS011;31738;50.188;8.524;2023-09-18T14:22:07;4.35;;;1.30;;
46006;SDS011;31738;50.188;8.524;2023-09-18T14:24:33;4.30;;;1.90;;
46006;SDS011;31738;50.188;8.524;2023-09-18T14:27:02;2.13;;;1.60;;
46006;SDS011;31738;50.188;8.524;2023-09-18T14:29:28;4.10;;;1.20;;
46006;SDS011;31738;50.188;8.524;2023-09-18T14:31:58;4.38;;;1.40;;
46006;SDS011;31738;50.188;8.524;2023-09-18T14:34:28;2.97;;;1.52;;
46006;SDS011;31738;50.188;8.524;2023-09-18T14:36:55;5.65;;;1.70;;
46006;SDS011;31738;50.188;8.524;2023-09-18T14:39:21;4.07;;;1.58;;
46006;SDS011;31738;50.188;8.524;2023-09-18T14:41:46;3.28;;;1.40;;
46006;SDS011;31738;50.188;8.524;2023-09-18T14:44:13;5.82;;;1.77;;
46006;SDS011;31738;50.188;8.524;2023-09-18T14:46:39;3.45;;;1.63;;
46006;SDS011;31738;50.188;8.524;2023-09-18T14:49:05;4.60;;;1.80;;
46006;SDS011;31738;50.188;8.524;2023-09-18T14:51:32;2.08;;;1.65;;
46006;SDS011;31738;50.188;8.524;2023-09-18T14:53:59;4.90;;;1.60;;
46006;SDS011;31738;50.188;8.524;2023-09-18T14:56:25;6.38;;;1.65;;
46006;SDS011;31738;50.188;8.524;2023-09-18T14:58:50;3.13;;;1.45;;